Terminal Aerodrome Forecast
Issued by NWS Memphis, TN

Home | Current Version | Previous Version | Text Only | Print | Product List | Glossary On
Versions: 1 2 3 4 5 6 7 8 9 10 11 12 13 14 15 16 17 18 19 20 21 22 23 24 25 26
750
FTUS44 KMEG 270523
TAFMEM
TAF
KMEM 270523Z 2706/2806 00000KT P6SM SCT120 BKN250
     FM271500 27006KT P6SM VCTS SCT035CB BKN200
     FM271800 34007KT P6SM VCTS BKN040CB BKN150
      TEMPO 2720/2724 3SM TSRA BKN020CB OVC040
     FM280000 03005KT P6SM VCTS SCT030CB BKN150=

USA.gov is the U.S. government's official web portal to all federal, state and local government web resources and services.